createdAt,value
2023-03-02T09:51:08.436Z,140149.22
2023-03-02T09:56:16.697Z,140189.66
2023-03-02T10:01:30.616Z,140165.19
2023-03-02T10:06:35.630Z,140265.69
2023-03-02T10:11:44.560Z,140235.00
2023-03-02T10:16:52.221Z,140306.19
2023-03-02T10:21:59.346Z,140338.09
2023-03-02T10:27:10.413Z,140286.53
2023-03-02T10:32:17.921Z,140264.44
2023-03-02T10:37:25.288Z,140247.31
2023-03-02T10:42:33.982Z,140317.22
2023-03-02T10:47:38.687Z,140298.78
2023-03-02T10:52:59.576Z,140448.56
2023-03-02T10:58:06.142Z,140460.81
2023-03-02T11:03:21.805Z,140420.31
2023-03-02T11:08:29.083Z,140583.59
2023-03-02T11:13:33.243Z,140700.31
2023-03-02T11:18:39.346Z,140411.69
2023-03-02T11:23:49.265Z,140448.56
2023-03-02T11:28:59.736Z,140547.94
2023-03-02T11:34:17.862Z,140559.03
2023-03-02T11:39:25.869Z,140699.09
2023-03-02T11:44:29.765Z,140680.63
2023-03-02T11:49:37.780Z,140733.50
2023-03-02T11:54:45.837Z,140664.66
2023-03-02T11:59:50.150Z,140737.19
2023-03-02T12:05:02.598Z,140839.19
2023-03-02T12:10:24.036Z,140765.44
2023-03-02T12:15:29.122Z,140663.41
2023-03-02T12:20:37.454Z,140653.59
2023-03-02T12:25:51.338Z,140665.91
2023-03-02T12:30:58.723Z,140760.53
2023-03-02T12:36:05.667Z,140807.22
2023-03-02T12:41:20.647Z,140754.41
2023-03-02T12:46:29.149Z,140791.22
2023-03-02T12:51:34.933Z,140678.19
2023-03-02T12:56:40.261Z,140774.03
2023-03-02T13:01:43.881Z,140878.50
2023-03-02T13:06:47.552Z,140774.03
2023-03-02T13:11:55.103Z,140797.34
2023-03-02T13:17:03.403Z,140776.50
2023-03-02T13:22:15.082Z,140766.66
2023-03-02T13:27:21.134Z,140852.69
2023-03-02T13:32:26.162Z,140812.13
2023-03-02T13:37:35.309Z,140772.81
2023-03-02T13:42:42.358Z,140780.22
2023-03-02T13:47:45.843Z,140744.53
2023-03-02T13:52:50.533Z,140704.00
2023-03-02T13:57:56.122Z,140622.88
2023-03-02T14:02:59.679Z,140602.00
2023-03-02T14:08:04.046Z,140582.38
2023-03-02T14:13:14.399Z,140574.97
2023-03-02T14:18:30.686Z,140606.91
2023-03-02T14:23:34.332Z,140578.66
2023-03-02T14:28:39.142Z,140667.16
2023-03-02T14:33:42.958Z,140549.19
2023-03-02T14:38:46.664Z,140547.94
2023-03-02T14:43:52.840Z,140404.34
2023-03-02T14:48:56.318Z,140498.84
2023-03-02T14:54:15.698Z,140507.44
2023-03-02T14:59:51.554Z,140479.19
2023-03-02T15:04:57.911Z,140455.91
2023-03-02T15:10:01.404Z,140444.88
2023-03-02T15:15:07.007Z,140452.22
2023-03-02T15:20:20.868Z,140432.56
2023-03-02T15:25:28.846Z,140436.25
2023-03-02T15:30:33.744Z,140405.56
2023-03-02T15:35:41.017Z,140371.22
2023-03-02T15:40:46.515Z,140460.81
2023-03-02T15:46:02.212Z,140503.75
2023-03-02T15:51:07.011Z,140436.25
2023-03-02T15:56:11.980Z,140368.75
2023-03-02T16:01:17.268Z,140344.22
2023-03-02T16:06:21.878Z,140334.41
2023-03-02T16:11:25.275Z,140358.97
2023-03-02T16:16:30.715Z,140313.53
2023-03-02T16:21:34.323Z,140354.00
2023-03-02T16:26:39.027Z,140302.47
2023-03-02T16:31:46.443Z,140190.94
2023-03-02T16:36:50.227Z,140210.47
2023-03-02T16:41:53.846Z,140243.59
2023-03-02T16:46:58.569Z,140159.00
2023-03-02T16:52:01.833Z,140141.88
2023-03-02T16:57:05.240Z,140239.91
2023-03-02T17:02:10.742Z,140233.78
2023-03-02T17:07:14.097Z,140250.97
2023-03-02T17:12:17.389Z,140216.59
2023-03-02T17:17:22.212Z,140221.53
2023-03-02T17:22:30.342Z,140201.91
2023-03-02T17:27:33.653Z,140157.78
2023-03-02T17:32:38.447Z,140102.59
2023-03-02T17:37:41.970Z,140127.13
2023-03-02T17:42:45.285Z,140102.59
2023-03-02T17:47:51.556Z,140069.53
2023-03-02T17:52:55.302Z,140036.44
2023-03-02T17:58:00.695Z,140080.56
2023-03-02T18:03:05.355Z,140071.97
2023-03-02T18:08:11.103Z,140047.44
2023-03-02T18:13:14.541Z,140045.00
2023-03-02T18:18:19.197Z,140051.13
2023-03-02T18:23:22.504Z,140047.44
2023-03-02T18:28:26.158Z,140063.41
2023-03-02T18:33:30.873Z,140092.81
2023-03-02T18:38:34.673Z,140118.56
2023-03-02T18:43:39.230Z,140094.03
2023-03-02T18:48:44.292Z,140080.56
2023-03-02T18:53:51.013Z,140074.41
2023-03-02T18:58:56.909Z,140101.38
2023-03-02T19:04:05.019Z,140049.88
2023-03-02T19:09:08.473Z,140000.91
2023-03-02T19:14:11.964Z,139998.47
2023-03-02T19:19:17.146Z,139966.56
2023-03-02T19:24:20.514Z,139937.19
2023-03-02T19:29:24.265Z,139940.88
2023-03-02T19:34:29.178Z,139982.50
2023-03-02T19:39:34.826Z,139977.59
2023-03-02T19:44:40.785Z,139983.72
2023-03-02T19:49:45.567Z,140038.88
2023-03-02T19:54:50.864Z,140087.91
2023-03-02T19:59:54.486Z,140047.44
2023-03-02T20:04:59.242Z,140041.31
2023-03-02T20:10:02.694Z,140007.03
2023-03-02T20:15:06.629Z,139932.31
2023-03-02T20:20:13.252Z,139976.38
2023-03-02T20:25:16.882Z,139935.97
2023-03-02T20:30:23.683Z,139900.47
2023-03-02T20:35:29.761Z,139918.84
2023-03-02T20:40:33.480Z,139944.53
2023-03-02T20:45:36.979Z,139873.50
2023-03-02T20:50:42.501Z,139877.19
2023-03-02T20:55:46.128Z,139846.56
2023-03-02T21:00:53.789Z,139862.50
2023-03-02T21:06:01.679Z,139940.88
2023-03-02T21:11:08.530Z,139924.97
2023-03-02T21:16:13.144Z,139961.66
2023-03-02T21:21:23.045Z,139923.75
2023-03-02T21:26:30.841Z,139880.84
2023-03-02T21:31:34.358Z,139915.19
2023-03-02T21:36:39.641Z,139911.47
2023-03-02T21:41:42.977Z,139913.97
2023-03-02T21:46:46.901Z,139969.06
2023-03-02T21:51:51.988Z,139973.94
2023-03-02T21:56:55.375Z,139992.28
2023-03-02T22:02:01.238Z,139972.72
2023-03-02T22:07:06.234Z,140000.91
2023-03-02T22:12:13.506Z,139966.56
2023-03-02T22:17:20.656Z,139902.91
2023-03-02T22:22:30.040Z,139954.31
2023-03-02T22:27:34.728Z,139993.50
2023-03-02T22:32:40.425Z,139982.50
2023-03-02T22:37:47.827Z,140008.25
